Time;durP1;ratioP1;P1;durP2;ratioP2;P2;SDS_P1;SDS_P2;PMS_P1;PMS_P2;Temp;Humidity;BMP_temperature;BMP_pressure;BME280_temperature;BME280_humidity;BME280_pressure;Samples;Min_cycle;Max_cycle;Signal;HPM_P1;HPM_P2
2022/05/27 00:00:24;;;;;;;5.38;2.30;;;;;;;15.48;68.51;101851.66;5052620;28;20096;-73
2022/05/27 00:02:52;;;;;;;3.20;1.58;;;;;;;15.46;68.74;101866.78;5049751;28;20121;-72
2022/05/27 00:05:19;;;;;;;3.22;1.80;;;;;;;15.46;68.90;101849.97;5049270;28;20528;-72
2022/05/27 00:07:46;;;;;;;6.85;2.40;;;;;;;15.43;69.09;101858.03;5032346;28;20488;-71
2022/05/27 00:10:21;;;;;;;7.70;2.50;;;;;;;15.40;69.23;101848.41;5032686;28;20042;-72
2022/05/27 00:12:48;;;;;;;4.35;2.05;;;;;;;15.38;69.33;101848.44;5045640;28;20559;-72
2022/05/27 00:15:15;;;;;;;6.05;2.40;;;;;;;15.36;69.24;101852.06;5049064;28;20048;-72
2022/05/27 00:17:42;;;;;;;5.20;2.28;;;;;;;15.37;69.49;101852.00;5035795;28;20052;-73
2022/05/27 00:20:10;;;;;;;7.50;2.05;;;;;;;15.36;69.64;101839.63;5042579;28;20431;-71
2022/05/27 00:22:37;;;;;;;6.32;2.22;;;;;;;15.37;69.57;101845.84;5033671;28;20440;-72
2022/05/27 00:25:06;;;;;;;5.97;2.50;;;;;;;15.33;69.71;101842.41;5033477;28;20538;-72
2022/05/27 00:27:33;;;;;;;8.18;2.55;;;;;;;15.31;69.73;101841.59;5043299;28;20042;-72
2022/05/27 00:30:00;;;;;;;5.75;2.00;;;;;;;15.30;69.73;101834.53;5032116;28;20038;-74
2022/05/27 00:32:30;;;;;;;5.03;2.30;;;;;;;15.30;69.81;101823.06;5041311;28;20037;-74
2022/05/27 00:34:58;;;;;;;6.57;2.40;;;;;;;15.30;69.90;101834.53;5032261;28;20100;-74
2022/05/27 00:37:26;;;;;;;8.80;2.47;;;;;;;15.31;69.84;101846.06;5047309;28;20042;-75
2022/05/27 00:39:54;;;;;;;7.70;2.20;;;;;;;15.32;69.57;101827.41;5051741;28;20117;-74
2022/05/27 00:42:21;;;;;;;5.57;2.30;;;;;;;15.31;69.46;101825.66;5045647;28;20045;-74
2022/05/27 00:44:48;;;;;;;8.18;2.38;;;;;;;15.32;69.57;101824.75;5038088;28;20045;-74
2022/05/27 00:47:20;;;;;;;7.60;2.30;;;;;;;15.34;69.51;101827.34;5052091;28;20037;-74
2022/05/27 00:49:58;;;;;;;5.65;2.22;;;;;;;15.34;69.75;101837.97;5047451;28;20119;-72
2022/05/27 00:52:32;;;;;;;4.75;2.22;;;;;;;15.31;70.01;101828.31;5036337;28;20142;-72
2022/05/27 00:55:04;;;;;;;7.30;2.60;;;;;;;15.32;69.65;101821.19;5034768;28;20038;-72
2022/05/27 00:57:42;;;;;;;9.98;2.45;;;;;;;15.29;69.86;101830.16;5041554;28;21642;-72
2022/05/27 01:00:18;;;;;;;8.27;2.67;;;;;;;15.31;70.19;101828.31;5035090;28;20038;-72
2022/05/27 01:02:47;;;;;;;8.90;2.80;;;;;;;15.28;70.93;101817.78;5035045;28;20089;-74
2022/05/27 01:05:20;;;;;;;7.82;2.95;;;;;;;15.24;71.05;101825.91;5034949;28;20049;-73
2022/05/27 01:07:52;;;;;;;7.03;3.05;;;;;;;15.20;71.73;101822.50;5052725;28;20049;-73
2022/05/27 01:10:19;;;;;;;6.88;2.75;;;;;;;15.14;72.76;101828.03;5052134;28;20144;-74
2022/05/27 01:13:09;;;;;;;9.40;3.40;;;;;;;15.02;72.97;101823.97;5034540;28;20053;-72
2022/05/27 01:16:22;;;;;;;8.48;2.90;;;;;;;14.89;73.89;101826.19;5041507;28;20041;-71
2022/05/27 01:22:45;;;;;;;7.20;4.22;;;;;;;14.64;76.04;101826.06;5041399;28;20046;-73
2022/05/27 01:25:37;;;;;;;8.18;4.05;;;;;;;14.54;76.60;101829.03;5047383;28;20049;-73
2022/05/27 01:29:04;;;;;;;8.77;3.90;;;;;;;14.46;77.59;101823.09;5048005;28;20542;-72
2022/05/27 01:32:32;;;;;;;9.63;3.95;;;;;;;14.34;78.49;101819.03;5027888;28;20224;-72
2022/05/27 01:35:52;;;;;;;8.15;4.30;;;;;;;14.27;79.09;101830.72;5045676;28;20061;-72
2022/05/27 01:39:02;;;;;;;10.15;4.60;;;;;;;14.21;79.36;101815.00;5032578;28;20045;-72
2022/05/27 01:42:20;;;;;;;11.48;5.28;;;;;;;14.17;80.17;101816.91;5037291;28;20587;-73
2022/05/27 01:45:07;;;;;;;14.07;4.57;;;;;;;14.13;80.02;101825.84;5037493;28;20049;-73
2022/05/27 01:47:44;;;;;;;;;;;;;;;14.09;80.67;101818.91;5037158;28;20042;-72
2022/05/27 01:50:28;;;;;;;10.35;5.20;;;;;;;14.07;81.26;101821.59;5034625;28;19956;-71
2022/05/27 01:53:15;;;;;;;14.27;5.95;;;;;;;14.04;81.28;101821.66;5036239;28;20567;-71
2022/05/27 01:55:46;;;;;;;13.02;5.95;;;;;;;14.03;81.56;101830.56;5034208;28;20050;-71
2022/05/27 01:58:48;;;;;;;9.23;5.18;;;;;;;13.99;82.08;101831.56;5039312;28;20042;-72
2022/05/27 02:01:26;;;;;;;12.52;5.03;;;;;;;13.95;82.91;101845.78;5071998;28;20065;-71
2022/05/27 02:04:06;;;;;;;12.85;6.03;;;;;;;13.93;82.91;101874.16;5050035;28;20144;-70
2022/05/27 02:06:44;;;;;;;12.65;6.57;;;;;;;13.82;84.27;101880.63;5055245;28;20068;-72
2022/05/27 02:09:38;;;;;;;9.38;5.82;;;;;;;13.71;84.83;101877.38;5051050;28;20042;-70
2022/05/27 02:12:15;;;;;;;10.13;5.60;;;;;;;13.62;85.74;101877.63;5043829;28;20057;-70
2022/05/27 02:14:54;;;;;;;12.50;6.30;;;;;;;13.57;85.78;101876.88;5053848;28;20043;-71
2022/05/27 02:17:34;;;;;;;13.52;6.53;;;;;;;13.52;86.53;101874.34;5036442;28;20528;-70
2022/05/27 02:20:16;;;;;;;17.60;6.85;;;;;;;13.49;86.81;101874.41;5043255;28;20038;-69
2022/05/27 02:22:54;;;;;;;10.77;6.05;;;;;;;13.46;86.96;101871.88;5036095;28;20045;-68
2022/05/27 02:25:30;;;;;;;8.35;4.60;;;;;;;13.43;86.82;101871.94;5033739;28;20077;-67
2022/05/27 02:28:32;;;;;;;5.90;3.47;;;;;;;13.35;86.10;101878.28;5033282;28;20038;-69
2022/05/27 02:31:07;;;;;;;7.57;3.10;;;;;;;13.27;85.52;101871.44;5033856;28;20053;-68
2022/05/27 02:36:38;;;;;;;6.72;3.40;;;;;;;13.09;86.43;101859.50;5050473;28;20518;-69
2022/05/27 02:39:08;;;;;;;4.97;3.03;;;;;;;13.07;86.77;101862.19;5053613;28;20041;-69
2022/05/27 02:41:56;;;;;;;10.27;3.65;;;;;;;13.04;86.59;101857.88;5047496;28;20041;-70
2022/05/27 02:44:45;;;;;;;7.40;2.97;;;;;;;13.08;87.03;101857.75;5050482;28;20121;-69
2022/05/27 02:47:27;;;;;;;11.35;4.60;;;;;;;13.03;87.17;101847.28;5044531;28;20739;-69
2022/05/27 02:50:09;;;;;;;8.30;3.90;;;;;;;13.03;87.67;101848.19;5033395;28;20042;-69
2022/05/27 02:53:04;;;;;;;7.43;4.05;;;;;;;13.05;87.78;101851.66;5045987;28;20393;-69
2022/05/27 02:56:10;;;;;;;6.78;3.72;;;;;;;13.04;87.96;101843.75;5044188;28;20048;-68
2022/05/27 02:58:37;;;;;;;9.65;3.78;;;;;;;13.08;88.04;101842.78;5050530;28;20041;-67
2022/05/27 03:01:05;;;;;;;6.68;3.50;;;;;;;13.07;88.05;101834.88;5044146;28;20053;-67
2022/05/27 03:03:32;;;;;;;6.65;4.20;;;;;;;13.03;88.12;101828.75;5034212;28;20569;-70
2022/05/27 03:06:21;;;;;;;7.00;4.30;;;;;;;13.04;88.20;101827.84;5033070;28;20042;-69
2022/05/27 03:09:14;;;;;;;8.00;4.28;;;;;;;13.04;88.16;101826.09;5033009;28;20105;-69
2022/05/27 03:12:05;;;;;;;8.07;4.43;;;;;;;13.04;88.31;101826.09;5044369;28;20060;-69
2022/05/27 03:14:59;;;;;;;8.70;4.78;;;;;;;13.06;88.33;101823.41;5032967;28;20046;-70
2022/05/27 03:18:03;;;;;;;9.20;5.07;;;;;;;13.06;88.67;101826.03;5032049;28;20924;-70
2022/05/27 03:20:51;;;;;;;9.52;4.53;;;;;;;13.10;88.51;101829.47;5044665;28;20041;-69
2022/05/27 03:23:49;;;;;;;6.50;4.30;;;;;;;13.10;88.26;101840.97;5037424;28;20057;-69
2022/05/27 03:27:17;;;;;;;9.02;4.25;;;;;;;13.07;88.41;101835.72;5040061;28;20045;-69
2022/05/27 03:29:57;;;;;;;8.82;5.00;;;;;;;13.05;88.15;101843.72;5032871;28;20049;-70
2022/05/27 03:32:58;;;;;;;10.82;4.82;;;;;;;13.02;88.34;101832.34;5032909;28;20037;-71
2022/05/27 03:35:54;;;;;;;5.65;4.38;;;;;;;13.01;88.69;101846.47;5034000;28;20057;-71
2022/05/27 03:38:35;;;;;;;6.82;4.60;;;;;;;13.01;88.87;101835.91;5049364;28;20977;-70
2022/05/27 03:41:19;;;;;;;12.80;4.90;;;;;;;13.02;89.00;101838.50;5039638;28;20041;-71
2022/05/27 03:43:49;;;;;;;11.98;5.13;;;;;;;13.01;88.76;101841.19;5034693;28;20129;-69
2022/05/27 03:46:36;;;;;;;12.05;5.60;;;;;;;12.99;88.97;101838.56;5034197;28;20048;-71
2022/05/27 03:49:06;;;;;;;7.80;5.10;;;;;;;12.98;89.28;101841.25;5034802;28;20033;-70
2022/05/27 03:52:02;;;;;;;9.52;5.45;;;;;;;12.99;89.11;101838.56;5028363;28;20046;-70
2022/05/27 03:54:29;;;;;;;10.60;5.20;;;;;;;12.97;89.39;101837.72;5031458;28;20057;-70
2022/05/27 03:56:57;;;;;;;12.35;5.18;;;;;;;12.99;89.35;101833.25;5032248;28;20046;-70
2022/05/27 03:59:26;;;;;;;8.60;5.88;;;;;;;13.02;89.43;101835.00;5031771;28;20045;-69
2022/05/27 04:01:55;;;;;;;14.98;5.55;;;;;;;13.03;89.74;101829.66;5038931;28;20034;-69
2022/05/27 04:04:27;;;;;;;10.10;5.75;;;;;;;13.06;89.54;101826.03;5049269;28;20129;-68
2022/05/27 04:06:55;;;;;;;10.27;5.38;;;;;;;13.09;89.58;101831.28;5046934;28;20029;-71
2022/05/27 04:09:25;;;;;;;10.30;5.30;;;;;;;13.13;89.66;101829.41;5034670;28;20045;-72
2022/05/27 04:11:54;;;;;;;9.98;5.50;;;;;;;13.14;89.41;101829.38;5031480;28;20080;-70
2022/05/27 04:14:22;;;;;;;12.65;5.75;;;;;;;13.17;89.42;101834.59;5036684;28;20052;-69
2022/05/27 04:16:49;;;;;;;10.82;5.22;;;;;;;13.21;88.93;101840.66;5032101;28;20034;-68
2022/05/27 04:19:18;;;;;;;7.63;4.72;;;;;;;13.22;88.01;101850.34;5032137;28;20449;-68
2022/05/27 04:21:45;;;;;;;9.85;5.30;;;;;;;13.18;88.08;101846.03;5044920;28;20088;-70
2022/05/27 04:24:12;;;;;;;16.05;5.55;;;;;;;13.20;88.54;101853.06;5038294;28;20172;-70
2022/05/27 04:26:39;;;;;;;7.53;5.60;;;;;;;13.23;88.58;101860.03;5036921;28;20072;-68
2022/05/27 04:29:07;;;;;;;7.90;5.38;;;;;;;13.24;88.07;101852.97;5040259;28;20046;-70
2022/05/27 04:31:34;;;;;;;9.93;5.10;;;;;;;13.24;88.40;101855.59;5039849;28;20746;-70
2022/05/27 04:34:06;;;;;;;13.43;5.70;;;;;;;13.23;88.75;101862.69;5045117;28;20041;-70
2022/05/27 04:36:33;;;;;;;11.80;5.47;;;;;;;13.28;88.67;101862.56;5049620;28;20060;-70
2022/05/27 04:39:00;;;;;;;11.18;6.07;;;;;;;13.30;88.75;101861.63;5048578;28;20048;-71
2022/05/27 04:41:27;;;;;;;13.38;6.65;;;;;;;13.38;88.46;101868.53;5046565;28;20519;-70
2022/05/27 04:43:54;;;;;;;11.30;6.00;;;;;;;13.46;88.73;101854.19;5042571;28;20437;-70
2022/05/27 04:46:22;;;;;;;11.32;5.90;;;;;;;13.58;88.25;101849.47;5031121;28;20042;-68
2022/05/27 04:48:49;;;;;;;12.38;6.28;;;;;;;13.64;88.20;101846.66;5030542;28;20076;-69
2022/05/27 04:51:16;;;;;;;12.43;5.97;;;;;;;13.71;87.74;101852.66;5035288;28;20042;-69
2022/05/27 04:53:43;;;;;;;12.65;6.65;;;;;;;13.77;87.64;101841.91;5048163;28;20049;-67
2022/05/27 04:56:11;;;;;;;15.80;6.50;;;;;;;13.89;87.24;101843.31;5032435;28;20528;-67
2022/05/27 04:58:38;;;;;;;11.73;6.22;;;;;;;14.00;87.21;101858.91;5033649;28;20054;-68
2022/05/27 05:01:05;;;;;;;20.27;7.03;;;;;;;14.06;87.01;101853.47;5042092;28;20057;-69
2022/05/27 05:03:38;;;;;;;10.02;6.60;;;;;;;14.16;86.41;101857.59;5041504;28;20049;-68
2022/05/27 05:06:05;;;;;;;11.30;6.57;;;;;;;14.27;85.98;101852.84;5033034;28;20492;-66
2022/05/27 05:08:36;;;;;;;12.68;6.78;;;;;;;14.43;85.60;101845.28;5031976;28;20034;-67
2022/05/27 05:11:05;;;;;;;12.57;6.45;;;;;;;14.65;85.07;101857.00;5032048;28;20060;-67
2022/05/27 05:13:34;;;;;;;14.23;6.63;;;;;;;14.85;84.69;101857.28;5031327;28;20478;-66
2022/05/27 05:16:04;;;;;;;14.98;6.10;;;;;;;15.05;83.71;101856.63;5030213;28;20076;-67
2022/05/27 05:18:31;;;;;;;11.90;6.65;;;;;;;15.44;82.17;101857.13;5041522;28;20471;-67
2022/05/27 05:20:59;;;;;;;14.23;6.90;;;;;;;15.78;81.13;101861.22;5030262;28;20089;-69
2022/05/27 05:23:26;;;;;;;13.80;5.97;;;;;;;16.09;80.71;101863.69;5042214;28;20064;-70
2022/05/27 05:25:53;;;;;;;10.52;6.18;;;;;;;16.74;78.96;101869.16;5036538;28;20046;-70
2022/05/27 05:28:21;;;;;;;11.82;5.60;;;;;;;17.00;78.30;101867.28;5030300;28;20038;-71
2022/05/27 05:30:48;;;;;;;8.07;4.88;;;;;;;16.44;77.29;101876.56;5048125;28;20099;-70
2022/05/27 05:33:15;;;;;;;9.18;5.15;;;;;;;16.01;78.85;101878.19;5054146;28;20084;-70
2022/05/27 05:35:42;;;;;;;17.05;6.65;;;;;;;15.65;80.19;101876.75;5040678;28;20052;-70
2022/05/27 05:38:09;;;;;;;14.30;6.32;;;;;;;15.48;80.73;101872.03;5045064;28;20125;-70
2022/05/27 05:40:43;;;;;;;13.20;6.47;;;;;;;16.10;79.67;101881.38;5035163;28;20046;-70
2022/05/27 05:43:13;;;;;;;12.80;5.57;;;;;;;16.83;76.27;101875.06;5034458;28;20050;-70
2022/05/27 05:45:40;;;;;;;13.57;6.03;;;;;;;16.41;77.90;101884.66;5043822;28;20053;-70
2022/05/27 05:48:08;;;;;;;15.50;5.90;;;;;;;16.10;78.87;101885.81;5048226;28;20033;-71
2022/05/27 05:50:35;;;;;;;19.95;7.65;;;;;;;16.13;79.81;101891.88;5043963;28;20038;-70
2022/05/27 05:53:03;;;;;;;13.98;5.95;;;;;;;17.30;76.04;101885.59;5041192;28;20038;-70
2022/05/27 05:55:32;;;;;;;13.05;5.82;;;;;;;17.04;76.10;101878.66;5048749;28;20046;-70
2022/05/27 05:58:04;;;;;;;19.73;5.90;;;;;;;16.90;75.44;101876.53;5046825;28;20068;-71
2022/05/27 06:00:32;;;;;;;15.05;5.45;;;;;;;17.53;75.24;101884.59;5046185;28;20044;-71
2022/05/27 06:02:59;;;;;;;13.75;5.85;;;;;;;18.39;72.05;101872.81;5042389;28;20070;-70
2022/05/27 06:05:26;;;;;;;11.63;5.10;;;;;;;18.27;70.70;101880.47;5041421;28;20041;-70
2022/05/27 06:07:56;;;;;;;13.27;4.70;;;;;;;17.97;70.71;101885.41;5048508;28;20038;-69
2022/05/27 06:10:24;;;;;;;11.48;5.30;;;;;;;17.42;73.30;101892.19;5040855;28;20048;-70
2022/05/27 06:12:51;;;;;;;11.25;4.05;;;;;;;16.87;73.42;101896.19;5044915;28;20065;-70
2022/05/27 06:15:22;;;;;;;16.52;4.38;;;;;;;16.48;74.77;101891.50;5049568;28;20041;-70
2022/05/27 06:17:49;;;;;;;11.27;5.13;;;;;;;16.32;75.46;101893.88;5046704;28;20045;-70
2022/05/27 06:20:17;;;;;;;13.25;5.28;;;;;;;16.26;76.07;101896.75;5050011;28;20045;-70
2022/05/27 06:22:44;;;;;;;16.38;4.68;;;;;;;16.20;76.01;101895.19;5050105;28;20049;-70
2022/05/27 06:25:13;;;;;;;8.93;4.25;;;;;;;16.30;74.84;101896.56;5047160;28;20041;-70
2022/05/27 06:27:42;;;;;;;14.07;4.20;;;;;;;16.17;73.76;101900.66;5043265;28;20157;-70
2022/05/27 06:35:43;;;;;;;14.70;4.30;;;;;;;15.92;76.74;101913.97;5046268;28;20045;-69
2022/05/27 06:38:11;;;;;;;13.27;3.60;;;;;;;16.05;74.89;101914.38;5045947;28;20096;-69
2022/05/27 06:40:38;;;;;;;8.48;3.05;;;;;;;16.17;73.27;101913.94;5047997;28;20041;-70
2022/05/27 06:43:06;;;;;;;12.65;2.60;;;;;;;16.12;70.96;101899.94;5050603;28;20042;-69
2022/05/27 06:45:34;;;;;;;13.57;3.63;;;;;;;16.03;71.78;101902.94;5049953;28;20811;-70
2022/05/27 06:48:01;;;;;;;13.25;3.13;;;;;;;15.94;70.76;101896.13;5044487;28;20046;-70
2022/05/27 06:50:31;;;;;;;14.07;3.17;;;;;;;15.99;71.05;101911.00;5047563;28;20045;-70
2022/05/27 06:52:59;;;;;;;10.40;2.97;;;;;;;15.98;71.21;101917.25;5058936;28;20034;-70
2022/05/27 06:55:27;;;;;;;12.95;2.80;;;;;;;16.05;70.55;101907.25;5051731;28;20049;-72
2022/05/27 06:57:54;;;;;;;13.07;3.03;;;;;;;16.02;70.37;101917.16;5047011;28;20042;-71
2022/05/27 07:00:21;;;;;;;10.60;2.65;;;;;;;16.14;70.03;101909.59;5042521;28;20048;-70
2022/05/27 07:02:48;;;;;;;6.75;2.17;;;;;;;16.22;68.15;101927.94;5048585;28;20085;-70
2022/05/27 07:05:17;;;;;;;8.75;1.83;;;;;;;16.30;68.38;101923.19;5041096;28;20042;-70
2022/05/27 07:07:44;;;;;;;8.07;2.47;;;;;;;16.39;66.58;101918.44;5049795;28;20037;-70
2022/05/27 07:10:11;;;;;;;10.00;1.95;;;;;;;16.43;65.40;101920.06;5043337;28;20057;-71
2022/05/27 07:12:39;;;;;;;11.32;2.15;;;;;;;16.49;67.35;101924.28;5048619;28;20065;-70
2022/05/27 07:15:07;;;;;;;11.13;1.83;;;;;;;16.61;65.00;101927.34;5041901;28;20045;-71
2022/05/27 07:17:35;;;;;;;8.15;1.98;;;;;;;16.63;63.13;101921.09;5048228;28;20057;-70
2022/05/27 07:20:04;;;;;;;7.43;1.60;;;;;;;16.65;60.82;101912.13;5044655;28;20167;-70
2022/05/27 07:22:31;;;;;;;8.32;1.38;;;;;;;16.59;59.25;101913.22;5045112;28;20044;-70
2022/05/27 07:24:58;;;;;;;8.00;2.30;;;;;;;16.54;59.80;101923.19;5043482;28;20069;-71
2022/05/27 07:27:26;;;;;;;6.68;1.95;;;;;;;16.54;60.45;101923.19;5045840;28;20046;-70
2022/05/27 07:29:53;;;;;;;8.38;2.08;;;;;;;16.52;59.30;101921.53;5047225;28;20041;-70
2022/05/27 07:32:21;;;;;;;6.80;1.70;;;;;;;16.54;58.21;101930.28;5046842;28;20041;-70
2022/05/27 07:34:48;;;;;;;7.18;1.52;;;;;;;16.57;58.95;101931.06;5047325;28;20049;-71
2022/05/27 07:37:16;;;;;;;9.10;2.30;;;;;;;16.74;59.07;101921.56;5035141;28;20034;-71
2022/05/27 07:39:43;;;;;;;7.30;1.92;;;;;;;16.70;58.04;101931.47;5047602;28;20044;-71
2022/05/27 07:42:10;;;;;;;6.55;1.83;;;;;;;16.66;57.83;101937.81;5043612;28;20037;-70
2022/05/27 07:44:37;;;;;;;17.55;2.92;;;;;;;16.57;58.61;101935.50;5046980;28;20376;-70
2022/05/27 07:47:06;;;;;;;8.75;2.10;;;;;;;16.54;58.65;101939.16;5042140;28;20046;-72
2022/05/27 07:49:35;;;;;;;8.38;2.17;;;;;;;16.58;57.21;101938.09;5048560;28;20112;-71
2022/05/27 07:52:05;;;;;;;13.35;1.92;;;;;;;16.76;55.69;101947.19;5030063;28;20037;-73
2022/05/27 07:54:34;;;;;;;10.20;1.90;;;;;;;16.82;54.49;101946.06;5029221;28;20045;-70
2022/05/27 07:57:03;;;;;;;9.05;1.50;;;;;;;16.81;52.82;101951.47;5039479;28;20157;-70
2022/05/27 07:59:30;;;;;;;7.50;2.00;;;;;;;16.77;53.65;101948.06;5047496;28;20042;-71
2022/05/27 08:01:57;;;;;;;8.50;1.83;;;;;;;16.69;51.67;101937.72;5046100;28;20085;-71
2022/05/27 08:04:24;;;;;;;8.38;1.75;;;;;;;16.61;52.10;101947.78;5041176;28;20496;-71
2022/05/27 08:06:51;;;;;;;12.10;2.13;;;;;;;16.54;51.66;101944.50;5037624;28;20045;-71
2022/05/27 08:09:19;;;;;;;9.55;1.90;;;;;;;16.52;52.32;101956.13;5033057;28;20050;-71
2022/05/27 08:11:46;;;;;;;9.02;1.63;;;;;;;16.71;52.70;101957.16;5043017;28;20053;-70
2022/05/27 08:14:14;;;;;;;12.88;2.20;;;;;;;16.90;52.10;101953.78;5037355;28;20137;-70
2022/05/27 08:16:42;;;;;;;10.73;2.05;;;;;;;16.93;53.43;101961.66;5032483;28;20050;-70
2022/05/27 08:19:10;;;;;;;10.90;2.25;;;;;;;17.25;50.50;101959.50;5044442;28;20129;-69
2022/05/27 08:21:38;;;;;;;13.90;2.53;;;;;;;17.37;51.38;101958.16;5047129;28;20097;-69
2022/05/27 08:24:09;;;;;;;10.15;2.20;;;;;;;17.44;52.56;101964.97;5036548;28;20140;-69
2022/05/27 08:26:38;;;;;;;12.65;1.88;;;;;;;17.42;51.00;101965.97;5047064;28;20044;-70
2022/05/27 08:29:08;;;;;;;6.68;1.80;;;;;;;17.38;49.74;101958.06;5031995;28;20045;-70
2022/05/27 08:31:38;;;;;;;11.00;2.05;;;;;;;17.38;48.93;101963.41;5047590;28;20045;-70
2022/05/27 08:39:46;;;;;;;11.85;2.03;;;;;;;17.41;50.55;101967.75;5028411;28;20034;-71
2022/05/27 08:42:44;;;;;;;11.38;1.80;;;;;;;17.64;49.75;101973.91;5033513;28;20066;-69
2022/05/27 08:45:24;;;;;;;11.88;1.83;;;;;;;17.77;49.12;101976.91;5028045;28;20165;-69
2022/05/27 08:48:05;;;;;;;6.53;1.45;;;;;;;17.63;48.09;101973.06;5028179;28;20621;-69
2022/05/27 08:51:20;;;;;;;7.18;1.73;;;;;;;17.52;49.28;101970.81;5032699;28;20044;-70
2022/05/27 08:54:01;;;;;;;11.38;1.98;;;;;;;17.37;48.88;101972.34;5044372;28;20045;-70
2022/05/27 08:59:38;;;;;;;9.50;2.15;;;;;;;17.37;49.05;101959.00;5041662;28;20041;-71
2022/05/27 09:02:38;;;;;;;8.52;2.03;;;;;;;17.48;50.34;101973.69;5033432;28;20042;-72
2022/05/27 09:05:28;;;;;;;9.07;1.92;;;;;;;17.45;49.65;101965.84;5045358;28;20052;-74
2022/05/27 09:08:05;;;;;;;8.75;1.60;;;;;;;17.43;49.11;101973.03;5032746;28;20049;-74
2022/05/27 09:11:08;;;;;;;12.68;1.90;;;;;;;17.32;49.87;101966.34;5045423;28;20034;-73
2022/05/27 09:13:56;;;;;;;7.57;1.95;;;;;;;17.39;49.25;101980.28;5030237;28;20054;-73
2022/05/27 09:16:51;;;;;;;8.18;1.40;;;;;;;17.42;48.76;101973.94;5036826;28;20132;-74
2022/05/27 09:19:49;;;;;;;15.13;1.83;;;;;;;17.48;47.44;101984.34;5050886;28;20057;-74
2022/05/27 09:22:41;;;;;;;8.60;1.52;;;;;;;17.51;47.84;101976.22;5049771;28;20159;-73
2022/05/27 09:25:46;;;;;;;7.63;1.48;;;;;;;17.61;48.13;101982.91;5043229;28;20037;-74
2022/05/27 09:28:49;;;;;;;12.27;1.93;;;;;;;17.74;46.76;101987.75;5038489;28;20045;-74
2022/05/27 09:31:40;;;;;;;15.77;2.72;;;;;;;17.80;44.09;102008.81;5045524;28;20474;-72
2022/05/27 09:34:12;;;;;;;6.57;1.90;;;;;;;17.81;45.65;102000.72;5044552;28;20072;-73
2022/05/27 09:36:53;;;;;;;9.15;1.83;;;;;;;17.79;45.88;101983.06;5042518;28;20468;-75
2022/05/27 09:39:24;;;;;;;7.65;2.05;;;;;;;18.04;45.95;101987.38;5032348;28;20044;-73
2022/05/27 09:42:09;;;;;;;11.13;2.03;;;;;;;18.15;45.90;101987.78;5046867;28;20048;-70
2022/05/27 09:44:54;;;;;;;8.60;1.83;;;;;;;18.34;45.88;101990.47;5048877;28;20048;-73
2022/05/27 09:47:28;;;;;;;12.50;1.80;;;;;;;18.37;44.18;101984.13;5044002;28;20053;-70
2022/05/27 09:50:28;;;;;;;7.40;1.77;;;;;;;18.17;45.60;101988.56;5048067;28;20081;-70
2022/05/27 09:52:58;;;;;;;12.15;2.15;;;;;;;18.10;46.85;101990.66;5042376;28;20033;-70
2022/05/27 09:55:39;;;;;;;8.18;1.50;;;;;;;17.96;46.00;101998.34;5046374;28;20041;-70
2022/05/27 09:58:07;;;;;;;9.20;2.03;;;;;;;18.03;45.95;101996.31;5043016;28;20061;-71
2022/05/27 10:00:51;;;;;;;7.13;1.48;;;;;;;18.01;44.82;101991.03;5046352;28;20054;-70
2022/05/27 10:03:27;;;;;;;12.93;2.03;;;;;;;18.18;44.24;101998.31;5039196;28;20045;-71
2022/05/27 10:05:56;;;;;;;13.90;1.75;;;;;;;18.40;44.14;101986.66;5044688;28;20041;-73
2022/05/27 10:08:54;;;;;;;8.52;1.63;;;;;;;18.33;44.67;101986.06;5047056;28;20930;-71
2022/05/27 10:11:34;;;;;;;6.65;1.92;;;;;;;18.28;46.69;101996.09;5044094;28;20058;-71
2022/05/27 10:14:32;;;;;;;6.30;1.77;;;;;;;18.54;44.85;101986.91;5041761;28;20034;-71
2022/05/27 10:17:12;;;;;;;10.10;1.90;;;;;;;18.71;46.02;101982.59;5045651;28;20553;-71
2022/05/27 10:19:47;;;;;;;6.45;1.70;;;;;;;19.00;46.19;101988.38;5045706;28;20605;-72
2022/05/27 10:22:29;;;;;;;12.77;1.83;;;;;;;18.72;44.47;101974.50;5040485;28;20054;-72
2022/05/27 10:25:11;;;;;;;12.07;1.88;;;;;;;18.40;44.87;101995.56;5047059;28;20041;-72
2022/05/27 10:27:50;;;;;;;9.48;1.73;;;;;;;18.55;42.98;101993.13;5031612;28;20038;-71
2022/05/27 10:30:52;;;;;;;8.55;1.67;;;;;;;18.53;43.94;101989.63;5032848;28;20052;-72
2022/05/27 10:33:24;;;;;;;4.57;1.25;;;;;;;18.57;43.13;101976.06;5033136;28;20871;-71
2022/05/27 10:35:53;;;;;;;8.68;1.88;;;;;;;18.71;42.38;101982.59;5038826;28;20050;-71
2022/05/27 10:39:17;;;;;;;18.98;2.40;;;;;;;19.00;42.01;101985.72;5046313;28;20038;-71
2022/05/27 10:42:42;;;;;;;15.00;2.25;;;;;;;18.78;40.49;102005.41;5035798;28;20053;-72
2022/05/27 10:45:17;;;;;;;4.97;1.93;;;;;;;18.66;41.75;101995.31;5043063;28;20045;-72
2022/05/27 10:48:04;;;;;;;6.78;1.50;;;;;;;18.48;44.30;102005.88;5042828;28;20045;-72
2022/05/27 10:51:25;;;;;;;6.68;1.60;;;;;;;18.53;42.48;102009.22;5040047;28;20849;-73
2022/05/27 10:54:07;;;;;;;25.58;3.25;;;;;;;18.49;41.70;102009.44;5051056;28;20823;-71
2022/05/27 11:03:45;;;;;;;17.45;2.65;;;;;;;18.61;40.81;102001.72;5041168;28;20133;-72
2022/05/27 11:06:36;;;;;;;14.73;2.33;;;;;;;18.36;42.73;102023.31;5042430;28;20042;-72
2022/05/27 11:09:37;;;;;;;12.40;1.73;;;;;;;18.42;41.29;102004.34;5044643;28;20128;-74
2022/05/27 11:15:10;;;;;;;6.65;1.92;;;;;;;18.66;41.14;102014.00;5041277;28;20050;-73
2022/05/27 11:15:32;;;;;;;11.23;1.58;;;;;;;18.88;41.22;102011.19;5045229;28;20038;-74
2022/05/27 11:18:41;;;;;;;11.38;1.85;;;;;;;18.85;41.29;102011.31;5046963;28;20040;-72
2022/05/27 11:21:22;;;;;;;7.93;1.70;;;;;;;19.19;40.35;101997.25;5038059;28;20053;-73
2022/05/27 11:24:16;;;;;;;14.90;2.85;;;;;;;19.50;40.89;102001.09;5047944;28;20037;-72
2022/05/27 11:27:36;;;;;;;5.25;1.33;;;;;;;19.59;38.32;102009.59;5038076;28;20041;-72
2022/05/27 11:30:20;;;;;;;10.07;2.00;;;;;;;18.95;39.62;102020.69;5041304;28;20052;-73
2022/05/27 11:33:27;;;;;;;9.75;1.75;;;;;;;18.56;41.49;102029.56;5041397;28;20045;-71
2022/05/27 11:36:41;;;;;;;7.53;1.70;;;;;;;18.51;40.93;102013.75;5041867;28;20520;-72
2022/05/27 11:39:38;;;;;;;10.63;2.10;;;;;;;18.62;41.03;102019.47;5042721;28;21528;-72
2022/05/27 11:42:37;;;;;;;19.98;2.35;;;;;;;18.88;39.44;102033.41;5043425;28;20045;-71
2022/05/27 11:45:24;;;;;;;13.10;2.33;;;;;;;19.09;38.77;102009.31;5046907;28;20033;-72
2022/05/27 11:48:06;;;;;;;34.95;3.25;;;;;;;18.80;39.28;102032.91;5041100;28;20048;-71
2022/05/27 11:50:54;;;;;;;22.90;2.75;;;;;;;18.49;39.50;102012.09;5046819;28;20116;-73
2022/05/27 11:53:43;;;;;;;8.82;1.95;;;;;;;18.48;40.63;102005.88;5046186;28;20042;-72
2022/05/27 11:56:42;;;;;;;9.02;2.03;;;;;;;18.14;39.49;102021.59;5042375;28;20034;-70
2022/05/27 11:59:21;;;;;;;10.27;1.70;;;;;;;18.39;40.49;102017.84;5045941;28;20049;-71
2022/05/27 12:02:05;;;;;;;14.02;2.15;;;;;;;18.60;40.65;102009.81;5042550;28;20040;-71
2022/05/27 12:04:56;;;;;;;14.27;2.17;;;;;;;18.92;39.78;102007.44;5034823;28;20183;-73
2022/05/27 12:07:42;;;;;;;7.15;1.80;;;;;;;19.02;39.58;102018.59;5045142;28;20147;-71
2022/05/27 12:10:32;;;;;;;8.90;2.30;;;;;;;19.36;39.05;101999.09;5043700;28;20040;-73
2022/05/27 12:13:01;;;;;;;18.33;2.45;;;;;;;19.08;38.99;102010.25;5041390;28;20093;-72
2022/05/27 12:15:47;;;;;;;10.30;1.98;;;;;;;18.68;38.72;102017.44;5046328;28;20046;-73
2022/05/27 12:18:37;;;;;;;10.63;1.70;;;;;;;18.59;38.04;102016.94;5046379;28;20045;-72
2022/05/27 12:21:11;;;;;;;7.80;1.60;;;;;;;18.54;38.07;102021.63;5042076;28;20694;-72
2022/05/27 12:23:44;;;;;;;;;;;;;;;18.23;38.48;101990.97;5046576;28;20037;-71
2022/05/27 12:26:12;;;;;;;5.15;1.40;;;;;;;18.12;39.81;102006.59;5034519;28;19929;-70
2022/05/27 12:28:45;;;;;;;15.77;2.05;;;;;;;18.54;40.37;102008.28;5060132;28;20895;-72
2022/05/27 12:31:13;;;;;;;15.93;1.88;;;;;;;18.92;39.23;102010.13;5038719;28;20515;-74
2022/05/27 12:33:43;;;;;;;11.80;2.28;;;;;;;19.27;39.04;102002.22;5043816;28;20163;-73
2022/05/27 12:36:25;;;;;;;8.68;1.70;;;;;;;19.57;38.50;101996.31;5041247;28;20389;-72
2022/05/27 12:38:55;;;;;;;10.80;2.25;;;;;;;19.53;39.52;102013.47;5041649;28;20538;-71